Terminal Aerodrome Forecast
Issued by NWS

Home | Current Version | Previous Version | Text Only | Print | Product List | Glossary On
Versions: 1 2 3 4 5 6 7 8 9 10 11 12 13 14 15 16 17
197
FTUS43 KILX 081120
TAFBMI
TAF
KBMI 081120Z 0812/0912 31014G20KT P6SM VCSH OVC015
      TEMPO 0813/0816 2SM -SHSN BR OVC004
     FM081800 30016G26KT P6SM VCSH OVC015
     FM090000 31016KT P6SM VCSH OVC015=

USA.gov is the U.S. government's official web portal to all federal, state and local government web resources and services.